sensor_id;sensor_type;location;lat;lon;timestamp;P1;durP1;ratioP1;P2;durP2;ratioP2
3207;SDS011;1616;52.394;9.756;2022-08-19T00:01:30;6.93;;;6.23;;
3207;SDS011;1616;52.394;9.756;2022-08-19T00:03:58;7.10;;;6.30;;
3207;SDS011;1616;52.394;9.756;2022-08-19T00:06:25;5.50;;;5.00;;
3207;SDS011;1616;52.394;9.756;2022-08-19T00:08:53;6.00;;;5.40;;
3207;SDS011;1616;52.394;9.756;2022-08-19T00:11:19;6.40;;;5.97;;
3207;SDS011;1616;52.394;9.756;2022-08-19T00:13:46;5.50;;;5.00;;
3207;SDS011;1616;52.394;9.756;2022-08-19T00:16:14;5.47;;;5.10;;
3207;SDS011;1616;52.394;9.756;2022-08-19T00:18:40;6.03;;;5.63;;
3207;SDS011;1616;52.394;9.756;2022-08-19T00:21:06;5.80;;;5.50;;
3207;SDS011;1616;52.394;9.756;2022-08-19T00:23:32;6.60;;;6.03;;
3207;SDS011;1616;52.394;9.756;2022-08-19T00:25:59;7.33;;;6.53;;
3207;SDS011;1616;52.394;9.756;2022-08-19T00:28:25;5.33;;;4.70;;
3207;SDS011;1616;52.394;9.756;2022-08-19T00:30:51;5.87;;;5.40;;
3207;SDS011;1616;52.394;9.756;2022-08-19T00:33:18;5.27;;;4.80;;
3207;SDS011;1616;52.394;9.756;2022-08-19T00:35:44;4.90;;;4.60;;
3207;SDS011;1616;52.394;9.756;2022-08-19T00:38:10;12.90;;;5.40;;
3207;SDS011;1616;52.394;9.756;2022-08-19T00:40:35;5.33;;;4.83;;
3207;SDS011;1616;52.394;9.756;2022-08-19T00:43:01;16.73;;;6.20;;
3207;SDS011;1616;52.394;9.756;2022-08-19T00:45:34;6.03;;;5.47;;
3207;SDS011;1616;52.394;9.756;2022-08-19T00:48:01;5.57;;;5.17;;
3207;SDS011;1616;52.394;9.756;2022-08-19T00:50:31;5.80;;;5.50;;
3207;SDS011;1616;52.394;9.756;2022-08-19T00:52:58;4.70;;;4.40;;
3207;SDS011;1616;52.394;9.756;2022-08-19T00:55:26;4.80;;;4.40;;
3207;SDS011;1616;52.394;9.756;2022-08-19T00:58:04;7.07;;;6.50;;
3207;SDS011;1616;52.394;9.756;2022-08-19T01:00:32;4.47;;;4.27;;
3207;SDS011;1616;52.394;9.756;2022-08-19T01:03:02;7.83;;;5.27;;
3207;SDS011;1616;52.394;9.756;2022-08-19T01:05:30;5.23;;;4.80;;
3207;SDS011;1616;52.394;9.756;2022-08-19T01:07:56;4.63;;;4.23;;
3207;SDS011;1616;52.394;9.756;2022-08-19T01:10:25;4.83;;;4.40;;
3207;SDS011;1616;52.394;9.756;2022-08-19T01:12:53;5.50;;;5.20;;
3207;SDS011;1616;52.394;9.756;2022-08-19T01:15:22;6.10;;;5.70;;
3207;SDS011;1616;52.394;9.756;2022-08-19T01:17:52;5.63;;;5.30;;
3207;SDS011;1616;52.394;9.756;2022-08-19T01:20:20;7.30;;;6.97;;
3207;SDS011;1616;52.394;9.756;2022-08-19T01:22:51;5.03;;;4.73;;
3207;SDS011;1616;52.394;9.756;2022-08-19T01:25:20;6.87;;;6.50;;
3207;SDS011;1616;52.394;9.756;2022-08-19T01:27:49;6.70;;;4.40;;
3207;SDS011;1616;52.394;9.756;2022-08-19T01:30:19;5.63;;;5.17;;
3207;SDS011;1616;52.394;9.756;2022-08-19T01:32:48;6.03;;;5.53;;
3207;SDS011;1616;52.394;9.756;2022-08-19T01:35:14;5.97;;;5.47;;
3207;SDS011;1616;52.394;9.756;2022-08-19T01:38:02;8.70;;;6.40;;
3207;SDS011;1616;52.394;9.756;2022-08-19T01:40:33;4.43;;;4.13;;
3207;SDS011;1616;52.394;9.756;2022-08-19T01:43:00;5.40;;;5.10;;
3207;SDS011;1616;52.394;9.756;2022-08-19T01:45:28;6.40;;;5.80;;
3207;SDS011;1616;52.394;9.756;2022-08-19T01:47:56;7.63;;;6.90;;
3207;SDS011;1616;52.394;9.756;2022-08-19T01:50:22;5.50;;;5.00;;
3207;SDS011;1616;52.394;9.756;2022-08-19T01:52:48;5.47;;;5.17;;
3207;SDS011;1616;52.394;9.756;2022-08-19T01:55:16;7.60;;;7.00;;
3207;SDS011;1616;52.394;9.756;2022-08-19T01:57:46;7.93;;;5.13;;
3207;SDS011;1616;52.394;9.756;2022-08-19T02:00:17;5.80;;;5.40;;
3207;SDS011;1616;52.394;9.756;2022-08-19T02:02:46;4.50;;;4.30;;
3207;SDS011;1616;52.394;9.756;2022-08-19T02:05:13;5.30;;;5.00;;
3207;SDS011;1616;52.394;9.756;2022-08-19T02:07:39;7.13;;;6.70;;
3207;SDS011;1616;52.394;9.756;2022-08-19T02:10:07;5.77;;;5.20;;
3207;SDS011;1616;52.394;9.756;2022-08-19T02:12:36;5.40;;;5.10;;
3207;SDS011;1616;52.394;9.756;2022-08-19T02:15:02;9.50;;;5.03;;
3207;SDS011;1616;52.394;9.756;2022-08-19T02:17:28;6.10;;;5.57;;
3207;SDS011;1616;52.394;9.756;2022-08-19T02:19:54;6.53;;;6.03;;
3207;SDS011;1616;52.394;9.756;2022-08-19T02:22:21;5.73;;;5.33;;
3207;SDS011;1616;52.394;9.756;2022-08-19T02:24:47;5.30;;;4.57;;
3207;SDS011;1616;52.394;9.756;2022-08-19T02:27:14;6.00;;;4.43;;
3207;SDS011;1616;52.394;9.756;2022-08-19T02:29:40;4.27;;;4.03;;
3207;SDS011;1616;52.394;9.756;2022-08-19T02:32:06;5.90;;;5.50;;
3207;SDS011;1616;52.394;9.756;2022-08-19T02:34:32;7.00;;;6.50;;
3207;SDS011;1616;52.394;9.756;2022-08-19T02:36:58;5.70;;;5.30;;
3207;SDS011;1616;52.394;9.756;2022-08-19T02:39:24;5.93;;;5.40;;
3207;SDS011;1616;52.394;9.756;2022-08-19T02:41:49;5.17;;;4.70;;
3207;SDS011;1616;52.394;9.756;2022-08-19T02:44:17;11.27;;;6.57;;
3207;SDS011;1616;52.394;9.756;2022-08-19T02:46:44;5.60;;;5.30;;
3207;SDS011;1616;52.394;9.756;2022-08-19T02:49:12;6.70;;;6.20;;
3207;SDS011;1616;52.394;9.756;2022-08-19T02:51:42;6.60;;;5.50;;
3207;SDS011;1616;52.394;9.756;2022-08-19T02:54:10;11.43;;;6.63;;
3207;SDS011;1616;52.394;9.756;2022-08-19T02:56:38;5.50;;;5.00;;
3207;SDS011;1616;52.394;9.756;2022-08-19T02:59:06;5.23;;;4.73;;
3207;SDS011;1616;52.394;9.756;2022-08-19T03:01:36;4.33;;;4.03;;
3207;SDS011;1616;52.394;9.756;2022-08-19T03:04:06;4.60;;;4.23;;
3207;SDS011;1616;52.394;9.756;2022-08-19T03:06:35;4.73;;;4.43;;
3207;SDS011;1616;52.394;9.756;2022-08-19T03:09:02;6.73;;;5.03;;
3207;SDS011;1616;52.394;9.756;2022-08-19T03:11:29;4.90;;;4.50;;
3207;SDS011;1616;52.394;9.756;2022-08-19T03:13:57;5.40;;;4.43;;
3207;SDS011;1616;52.394;9.756;2022-08-19T03:16:24;7.30;;;5.80;;
3207;SDS011;1616;52.394;9.756;2022-08-19T03:18:52;4.07;;;3.73;;
3207;SDS011;1616;52.394;9.756;2022-08-19T03:21:19;5.93;;;5.40;;
3207;SDS011;1616;52.394;9.756;2022-08-19T03:23:49;3.97;;;3.53;;
3207;SDS011;1616;52.394;9.756;2022-08-19T03:26:15;5.30;;;4.87;;
3207;SDS011;1616;52.394;9.756;2022-08-19T03:28:41;5.47;;;4.33;;
3207;SDS011;1616;52.394;9.756;2022-08-19T03:31:12;6.07;;;5.07;;
3207;SDS011;1616;52.394;9.756;2022-08-19T03:33:39;4.53;;;4.13;;
3207;SDS011;1616;52.394;9.756;2022-08-19T03:36:15;4.23;;;3.93;;
3207;SDS011;1616;52.394;9.756;2022-08-19T03:38:44;5.80;;;5.50;;
3207;SDS011;1616;52.394;9.756;2022-08-19T03:41:14;4.50;;;4.20;;
3207;SDS011;1616;52.394;9.756;2022-08-19T03:43:42;3.83;;;3.63;;
3207;SDS011;1616;52.394;9.756;2022-08-19T03:46:12;3.87;;;3.53;;
3207;SDS011;1616;52.394;9.756;2022-08-19T03:48:45;5.93;;;3.97;;
3207;SDS011;1616;52.394;9.756;2022-08-19T03:51:16;3.93;;;3.47;;
3207;SDS011;1616;52.394;9.756;2022-08-19T03:53:45;4.70;;;4.30;;
3207;SDS011;1616;52.394;9.756;2022-08-19T03:56:11;4.27;;;3.93;;
3207;SDS011;1616;52.394;9.756;2022-08-19T03:58:38;5.00;;;4.77;;
3207;SDS011;1616;52.394;9.756;2022-08-19T04:01:27;4.17;;;3.97;;
3207;SDS011;1616;52.394;9.756;2022-08-19T04:03:52;3.87;;;3.63;;
3207;SDS011;1616;52.394;9.756;2022-08-19T04:06:21;4.20;;;4.00;;
3207;SDS011;1616;52.394;9.756;2022-08-19T04:08:49;4.50;;;4.10;;
3207;SDS011;1616;52.394;9.756;2022-08-19T04:11:18;5.80;;;5.30;;
3207;SDS011;1616;52.394;9.756;2022-08-19T04:13:48;6.43;;;4.17;;
3207;SDS011;1616;52.394;9.756;2022-08-19T04:16:17;4.53;;;4.23;;
3207;SDS011;1616;52.394;9.756;2022-08-19T04:18:43;4.43;;;4.13;;
3207;SDS011;1616;52.394;9.756;2022-08-19T04:21:14;5.70;;;4.13;;
3207;SDS011;1616;52.394;9.756;2022-08-19T04:23:45;5.37;;;4.07;;
3207;SDS011;1616;52.394;9.756;2022-08-19T04:26:15;6.17;;;5.60;;
3207;SDS011;1616;52.394;9.756;2022-08-19T04:28:49;4.20;;;3.87;;
3207;SDS011;1616;52.394;9.756;2022-08-19T04:31:20;4.30;;;4.07;;
3207;SDS011;1616;52.394;9.756;2022-08-19T04:33:47;4.97;;;4.67;;
3207;SDS011;1616;52.394;9.756;2022-08-19T04:36:32;6.80;;;4.57;;
3207;SDS011;1616;52.394;9.756;2022-08-19T04:39:02;4.20;;;3.77;;
3207;SDS011;1616;52.394;9.756;2022-08-19T04:41:33;5.47;;;5.07;;
3207;SDS011;1616;52.394;9.756;2022-08-19T04:44:18;4.30;;;4.00;;
3207;SDS011;1616;52.394;9.756;2022-08-19T04:46:48;5.37;;;3.73;;
3207;SDS011;1616;52.394;9.756;2022-08-19T04:49:15;4.30;;;3.90;;
3207;SDS011;1616;52.394;9.756;2022-08-19T04:51:43;4.60;;;3.70;;
3207;SDS011;1616;52.394;9.756;2022-08-19T04:54:12;4.30;;;3.43;;
3207;SDS011;1616;52.394;9.756;2022-08-19T04:56:38;4.20;;;3.90;;
3207;SDS011;1616;52.394;9.756;2022-08-19T04:59:05;5.07;;;4.67;;
3207;SDS011;1616;52.394;9.756;2022-08-19T05:01:31;4.80;;;4.33;;
3207;SDS011;1616;52.394;9.756;2022-08-19T05:03:59;8.70;;;4.50;;
3207;SDS011;1616;52.394;9.756;2022-08-19T05:06:30;4.93;;;4.43;;
3207;SDS011;1616;52.394;9.756;2022-08-19T05:08:58;3.90;;;3.70;;
3207;SDS011;1616;52.394;9.756;2022-08-19T05:11:27;4.57;;;4.37;;
3207;SDS011;1616;52.394;9.756;2022-08-19T05:13:55;4.80;;;4.43;;
3207;SDS011;1616;52.394;9.756;2022-08-19T05:16:22;5.60;;;5.20;;
3207;SDS011;1616;52.394;9.756;2022-08-19T05:18:49;4.40;;;4.00;;
3207;SDS011;1616;52.394;9.756;2022-08-19T05:21:34;5.20;;;4.10;;
3207;SDS011;1616;52.394;9.756;2022-08-19T05:24:19;4.30;;;4.00;;
3207;SDS011;1616;52.394;9.756;2022-08-19T05:26:47;5.23;;;3.47;;
3207;SDS011;1616;52.394;9.756;2022-08-19T05:29:15;9.30;;;4.10;;
3207;SDS011;1616;52.394;9.756;2022-08-19T05:31:44;6.27;;;4.80;;
3207;SDS011;1616;52.394;9.756;2022-08-19T05:34:10;7.70;;;7.10;;
3207;SDS011;1616;52.394;9.756;2022-08-19T05:36:39;6.03;;;5.27;;
3207;SDS011;1616;52.394;9.756;2022-08-19T05:39:10;6.27;;;4.23;;
3207;SDS011;1616;52.394;9.756;2022-08-19T05:41:42;5.20;;;4.90;;
3207;SDS011;1616;52.394;9.756;2022-08-19T05:44:12;4.30;;;3.90;;
3207;SDS011;1616;52.394;9.756;2022-08-19T05:46:38;5.50;;;5.00;;
3207;SDS011;1616;52.394;9.756;2022-08-19T05:49:04;4.87;;;4.50;;
3207;SDS011;1616;52.394;9.756;2022-08-19T05:51:32;6.23;;;5.10;;
3207;SDS011;1616;52.394;9.756;2022-08-19T05:54:00;4.83;;;4.30;;
3207;SDS011;1616;52.394;9.756;2022-08-19T05:56:26;3.83;;;3.53;;
3207;SDS011;1616;52.394;9.756;2022-08-19T05:58:52;5.17;;;4.87;;
3207;SDS011;1616;52.394;9.756;2022-08-19T06:01:19;6.20;;;5.70;;
3207;SDS011;1616;52.394;9.756;2022-08-19T06:03:46;11.10;;;6.63;;
3207;SDS011;1616;52.394;9.756;2022-08-19T06:06:13;7.20;;;6.47;;
3207;SDS011;1616;52.394;9.756;2022-08-19T06:08:40;7.83;;;7.23;;
3207;SDS011;1616;52.394;9.756;2022-08-19T06:13:41;7.87;;;7.10;;
3207;SDS011;1616;52.394;9.756;2022-08-19T06:16:08;8.00;;;7.60;;
3207;SDS011;1616;52.394;9.756;2022-08-19T06:18:34;10.40;;;9.40;;
3207;SDS011;1616;52.394;9.756;2022-08-19T06:21:00;9.50;;;8.70;;
3207;SDS011;1616;52.394;9.756;2022-08-19T06:23:28;8.83;;;8.10;;
3207;SDS011;1616;52.394;9.756;2022-08-19T06:25:54;9.50;;;8.90;;
3207;SDS011;1616;52.394;9.756;2022-08-19T06:28:20;10.90;;;9.80;;
3207;SDS011;1616;52.394;9.756;2022-08-19T06:30:46;8.43;;;7.80;;
3207;SDS011;1616;52.394;9.756;2022-08-19T06:33:11;11.13;;;9.87;;
3207;SDS011;1616;52.394;9.756;2022-08-19T06:35:40;8.50;;;7.90;;
3207;SDS011;1616;52.394;9.756;2022-08-19T06:38:07;9.00;;;8.40;;
3207;SDS011;1616;52.394;9.756;2022-08-19T06:40:33;9.33;;;8.50;;
3207;SDS011;1616;52.394;9.756;2022-08-19T06:42:59;8.60;;;7.90;;
3207;SDS011;1616;52.394;9.756;2022-08-19T06:45:27;9.60;;;8.57;;
3207;SDS011;1616;52.394;9.756;2022-08-19T06:47:53;10.57;;;9.60;;
3207;SDS011;1616;52.394;9.756;2022-08-19T06:50:22;13.07;;;11.80;;
3207;SDS011;1616;52.394;9.756;2022-08-19T06:52:48;9.97;;;9.17;;
3207;SDS011;1616;52.394;9.756;2022-08-19T06:55:14;10.13;;;9.10;;
3207;SDS011;1616;52.394;9.756;2022-08-19T06:57:40;10.87;;;9.93;;
3207;SDS011;1616;52.394;9.756;2022-08-19T07:00:07;8.87;;;7.90;;
3207;SDS011;1616;52.394;9.756;2022-08-19T07:02:41;13.20;;;9.67;;
3207;SDS011;1616;52.394;9.756;2022-08-19T07:05:07;8.93;;;7.80;;
3207;SDS011;1616;52.394;9.756;2022-08-19T07:07:33;8.60;;;7.90;;
3207;SDS011;1616;52.394;9.756;2022-08-19T07:09:59;8.00;;;7.30;;
3207;SDS011;1616;52.394;9.756;2022-08-19T07:12:26;11.30;;;9.30;;
3207;SDS011;1616;52.394;9.756;2022-08-19T07:14:54;10.00;;;9.30;;
3207;SDS011;1616;52.394;9.756;2022-08-19T07:17:21;10.03;;;8.00;;
3207;SDS011;1616;52.394;9.756;2022-08-19T07:19:47;9.10;;;8.23;;
3207;SDS011;1616;52.394;9.756;2022-08-19T07:22:13;13.13;;;10.30;;
3207;SDS011;1616;52.394;9.756;2022-08-19T07:24:40;10.17;;;9.27;;
3207;SDS011;1616;52.394;9.756;2022-08-19T07:27:06;15.53;;;9.93;;
3207;SDS011;1616;52.394;9.756;2022-08-19T07:29:33;9.67;;;8.97;;
3207;SDS011;1616;52.394;9.756;2022-08-19T07:32:00;10.50;;;9.80;;
3207;SDS011;1616;52.394;9.756;2022-08-19T07:34:28;12.27;;;11.23;;
3207;SDS011;1616;52.394;9.756;2022-08-19T07:36:55;13.13;;;12.03;;
3207;SDS011;1616;52.394;9.756;2022-08-19T07:39:29;13.57;;;12.17;;
3207;SDS011;1616;52.394;9.756;2022-08-19T07:41:58;13.57;;;12.50;;
3207;SDS011;1616;52.394;9.756;2022-08-19T07:44:25;10.70;;;10.00;;
3207;SDS011;1616;52.394;9.756;2022-08-19T07:46:52;16.33;;;14.63;;
3207;SDS011;1616;52.394;9.756;2022-08-19T07:49:21;13.90;;;12.47;;
3207;SDS011;1616;52.394;9.756;2022-08-19T07:51:52;15.10;;;13.87;;
3207;SDS011;1616;52.394;9.756;2022-08-19T07:54:23;14.50;;;13.20;;
3207;SDS011;1616;52.394;9.756;2022-08-19T07:56:52;15.53;;;13.80;;
3207;SDS011;1616;52.394;9.756;2022-08-19T07:59:18;13.80;;;12.70;;
3207;SDS011;1616;52.394;9.756;2022-08-19T08:01:46;14.70;;;13.33;;
3207;SDS011;1616;52.394;9.756;2022-08-19T08:04:13;13.60;;;12.30;;
3207;SDS011;1616;52.394;9.756;2022-08-19T08:06:57;11.43;;;10.60;;
3207;SDS011;1616;52.394;9.756;2022-08-19T08:09:42;14.67;;;13.17;;
3207;SDS011;1616;52.394;9.756;2022-08-19T08:12:10;12.23;;;11.00;;
3207;SDS011;1616;52.394;9.756;2022-08-19T08:14:43;12.07;;;11.17;;
3207;SDS011;1616;52.394;9.756;2022-08-19T08:17:11;12.20;;;11.00;;
3207;SDS011;1616;52.394;9.756;2022-08-19T08:19:37;10.70;;;10.10;;
3207;SDS011;1616;52.394;9.756;2022-08-19T08:22:06;9.70;;;9.10;;
3207;SDS011;1616;52.394;9.756;2022-08-19T08:24:33;9.73;;;9.13;;
3207;SDS011;1616;52.394;9.756;2022-08-19T08:27:00;9.30;;;8.70;;
3207;SDS011;1616;52.394;9.756;2022-08-19T08:29:27;9.03;;;8.53;;
3207;SDS011;1616;52.394;9.756;2022-08-19T08:31:54;8.40;;;7.60;;
3207;SDS011;1616;52.394;9.756;2022-08-19T08:34:20;8.70;;;8.20;;
3207;SDS011;1616;52.394;9.756;2022-08-19T08:36:46;9.07;;;7.57;;
3207;SDS011;1616;52.394;9.756;2022-08-19T08:39:15;7.37;;;6.77;;
3207;SDS011;1616;52.394;9.756;2022-08-19T08:45:13;7.13;;;6.77;;
3207;SDS011;1616;52.394;9.756;2022-08-19T08:47:22;7.20;;;6.87;;
3207;SDS011;1616;52.394;9.756;2022-08-19T08:49:54;6.90;;;6.60;;
3207;SDS011;1616;52.394;9.756;2022-08-19T08:55:03;6.00;;;5.70;;
3207;SDS011;1616;52.394;9.756;2022-08-19T09:00:31;6.27;;;5.97;;
3207;SDS011;1616;52.394;9.756;2022-08-19T09:02:58;6.60;;;6.07;;
3207;SDS011;1616;52.394;9.756;2022-08-19T09:06:14;5.70;;;5.40;;
3207;SDS011;1616;52.394;9.756;2022-08-19T09:08:17;8.27;;;5.10;;
3207;SDS011;1616;52.394;9.756;2022-08-19T09:10:55;5.27;;;4.97;;
3207;SDS011;1616;52.394;9.756;2022-08-19T09:16:13;5.90;;;5.50;;
3207;SDS011;1616;52.394;9.756;2022-08-19T09:18:47;4.90;;;4.50;;
3207;SDS011;1616;52.394;9.756;2022-08-19T09:21:17;4.50;;;4.30;;
3207;SDS011;1616;52.394;9.756;2022-08-19T09:23:43;4.40;;;4.20;;
3207;SDS011;1616;52.394;9.756;2022-08-19T09:26:10;5.23;;;4.83;;
3207;SDS011;1616;52.394;9.756;2022-08-19T09:28:39;5.13;;;4.90;;
3207;SDS011;1616;52.394;9.756;2022-08-19T09:31:09;6.00;;;4.77;;
3207;SDS011;1616;52.394;9.756;2022-08-19T09:33:47;3.80;;;3.60;;
3207;SDS011;1616;52.394;9.756;2022-08-19T09:36:15;6.77;;;4.00;;
3207;SDS011;1616;52.394;9.756;2022-08-19T09:38:43;5.17;;;4.97;;
3207;SDS011;1616;52.394;9.756;2022-08-19T09:41:11;4.40;;;4.10;;
3207;SDS011;1616;52.394;9.756;2022-08-19T09:43:42;3.20;;;3.00;;
3207;SDS011;1616;52.394;9.756;2022-08-19T09:46:10;4.07;;;3.87;;
3207;SDS011;1616;52.394;9.756;2022-08-19T09:48:37;7.53;;;3.70;;
3207;SDS011;1616;52.394;9.756;2022-08-19T09:51:14;4.82;;;3.33;;
3207;SDS011;1616;52.394;9.756;2022-08-19T09:53:42;3.55;;;3.28;;
3207;SDS011;1616;52.394;9.756;2022-08-19T09:56:09;3.38;;;3.17;;
3207;SDS011;1616;52.394;9.756;2022-08-19T09:58:36;3.47;;;3.00;;
3207;SDS011;1616;52.394;9.756;2022-08-19T10:01:02;3.47;;;2.75;;
3207;SDS011;1616;52.394;9.756;2022-08-19T10:03:30;2.58;;;2.38;;
3207;SDS011;1616;52.394;9.756;2022-08-19T10:05:57;2.90;;;2.70;;
3207;SDS011;1616;52.394;9.756;2022-08-19T10:08:26;3.28;;;2.97;;
3207;SDS011;1616;52.394;9.756;2022-08-19T10:10:54;3.17;;;2.97;;
3207;SDS011;1616;52.394;9.756;2022-08-19T10:13:21;3.38;;;2.70;;
3207;SDS011;1616;52.394;9.756;2022-08-19T10:15:51;3.15;;;3.05;;
3207;SDS011;1616;52.394;9.756;2022-08-19T10:18:18;2.53;;;2.42;;
3207;SDS011;1616;52.394;9.756;2022-08-19T10:20:49;5.55;;;3.35;;
3207;SDS011;1616;52.394;9.756;2022-08-19T10:23:17;2.97;;;2.88;;
3207;SDS011;1616;52.394;9.756;2022-08-19T10:25:45;2.63;;;2.53;;
3207;SDS011;1616;52.394;9.756;2022-08-19T10:28:11;2.10;;;2.00;;
3207;SDS011;1616;52.394;9.756;2022-08-19T10:30:39;2.45;;;2.35;;
3207;SDS011;1616;52.394;9.756;2022-08-19T10:33:06;2.27;;;2.17;;
3207;SDS011;1616;52.394;9.756;2022-08-19T10:35:32;2.33;;;2.23;;
3207;SDS011;1616;52.394;9.756;2022-08-19T10:37:58;2.87;;;2.30;;
3207;SDS011;1616;52.394;9.756;2022-08-19T10:40:25;3.20;;;2.33;;
3207;SDS011;1616;52.394;9.756;2022-08-19T10:42:53;2.70;;;2.50;;
3207;SDS011;1616;52.394;9.756;2022-08-19T10:45:20;7.00;;;2.55;;
3207;SDS011;1616;52.394;9.756;2022-08-19T10:47:50;2.40;;;2.20;;
3207;SDS011;1616;52.394;9.756;2022-08-19T10:50:15;2.10;;;1.90;;
3207;SDS011;1616;52.394;9.756;2022-08-19T10:53:03;2.00;;;1.80;;
3207;SDS011;1616;52.394;9.756;2022-08-19T10:55:30;3.33;;;1.80;;
3207;SDS011;1616;52.394;9.756;2022-08-19T10:58:16;2.15;;;2.05;;
3207;SDS011;1616;52.394;9.756;2022-08-19T11:00:57;2.42;;;2.10;;
3207;SDS011;1616;52.394;9.756;2022-08-19T11:03:23;2.10;;;2.00;;
3207;SDS011;1616;52.394;9.756;2022-08-19T11:05:57;1.90;;;1.80;;
3207;SDS011;1616;52.394;9.756;2022-08-19T11:08:33;1.90;;;1.80;;
3207;SDS011;1616;52.394;9.756;2022-08-19T11:11:00;2.37;;;1.70;;
3207;SDS011;1616;52.394;9.756;2022-08-19T11:13:31;2.63;;;2.53;;
3207;SDS011;1616;52.394;9.756;2022-08-19T11:16:01;2.45;;;1.60;;
3207;SDS011;1616;52.394;9.756;2022-08-19T11:18:42;4.10;;;1.63;;
3207;SDS011;1616;52.394;9.756;2022-08-19T11:21:18;1.90;;;1.80;;
3207;SDS011;1616;52.394;9.756;2022-08-19T11:23:48;3.15;;;1.73;;
3207;SDS011;1616;52.394;9.756;2022-08-19T11:26:15;1.55;;;1.45;;
3207;SDS011;1616;52.394;9.756;2022-08-19T11:28:41;1.60;;;1.50;;
3207;SDS011;1616;52.394;9.756;2022-08-19T11:31:18;2.55;;;1.40;;
3207;SDS011;1616;52.394;9.756;2022-08-19T11:33:45;1.45;;;1.35;;
3207;SDS011;1616;52.394;9.756;2022-08-19T11:36:11;1.30;;;1.20;;
3207;SDS011;1616;52.394;9.756;2022-08-19T11:38:38;1.30;;;1.20;;
3207;SDS011;1616;52.394;9.756;2022-08-19T11:41:06;2.45;;;1.10;;
3207;SDS011;1616;52.394;9.756;2022-08-19T11:43:32;2.42;;;1.27;;
3207;SDS011;1616;52.394;9.756;2022-08-19T11:45:59;1.40;;;1.30;;
3207;SDS011;1616;52.394;9.756;2022-08-19T11:48:28;2.22;;;1.60;;
3207;SDS011;1616;52.394;9.756;2022-08-19T11:50:54;1.42;;;1.23;;
3207;SDS011;1616;52.394;9.756;2022-08-19T11:53:23;1.60;;;1.50;;
3207;SDS011;1616;52.394;9.756;2022-08-19T11:55:49;1.40;;;1.30;;
3207;SDS011;1616;52.394;9.756;2022-08-19T11:58:16;1.30;;;1.20;;
3207;SDS011;1616;52.394;9.756;2022-08-19T12:00:42;1.40;;;1.30;;
3207;SDS011;1616;52.394;9.756;2022-08-19T12:03:10;1.30;;;1.20;;
3207;SDS011;1616;52.394;9.756;2022-08-19T12:05:37;3.50;;;1.50;;
3207;SDS011;1616;52.394;9.756;2022-08-19T12:08:05;1.50;;;1.40;;
3207;SDS011;1616;52.394;9.756;2022-08-19T12:10:32;2.58;;;1.30;;
3207;SDS011;1616;52.394;9.756;2022-08-19T12:12:58;6.07;;;1.77;;
3207;SDS011;1616;52.394;9.756;2022-08-19T12:15:25;1.40;;;1.30;;
3207;SDS011;1616;52.394;9.756;2022-08-19T12:17:52;1.20;;;1.10;;
3207;SDS011;1616;52.394;9.756;2022-08-19T12:20:21;1.30;;;1.20;;
3207;SDS011;1616;52.394;9.756;2022-08-19T12:22:48;1.23;;;1.10;;
3207;SDS011;1616;52.394;9.756;2022-08-19T12:25:14;1.50;;;1.30;;
3207;SDS011;1616;52.394;9.756;2022-08-19T12:27:39;1.30;;;1.20;;
3207;SDS011;1616;52.394;9.756;2022-08-19T12:30:06;1.30;;;1.20;;
3207;SDS011;1616;52.394;9.756;2022-08-19T12:32:34;1.92;;;1.00;;
3207;SDS011;1616;52.394;9.756;2022-08-19T12:35:00;2.85;;;1.33;;
3207;SDS011;1616;52.394;9.756;2022-08-19T12:37:26;2.30;;;1.30;;
3207;SDS011;1616;52.394;9.756;2022-08-19T12:39:52;1.20;;;1.10;;
3207;SDS011;1616;52.394;9.756;2022-08-19T12:42:18;1.27;;;1.17;;
3207;SDS011;1616;52.394;9.756;2022-08-19T12:44:44;1.30;;;1.20;;
3207;SDS011;1616;52.394;9.756;2022-08-19T12:47:10;1.50;;;1.40;;
3207;SDS011;1616;52.394;9.756;2022-08-19T12:49:39;1.45;;;1.35;;
3207;SDS011;1616;52.394;9.756;2022-08-19T12:52:06;1.23;;;1.13;;
3207;SDS011;1616;52.394;9.756;2022-08-19T12:54:33;5.00;;;1.42;;
3207;SDS011;1616;52.394;9.756;2022-08-19T12:57:00;1.63;;;1.30;;
3207;SDS011;1616;52.394;9.756;2022-08-19T12:59:30;2.30;;;1.20;;
3207;SDS011;1616;52.394;9.756;2022-08-19T13:01:55;1.30;;;1.20;;
3207;SDS011;1616;52.394;9.756;2022-08-19T13:04:22;1.27;;;1.17;;
3207;SDS011;1616;52.394;9.756;2022-08-19T13:06:48;2.17;;;1.02;;
3207;SDS011;1616;52.394;9.756;2022-08-19T13:09:13;1.38;;;1.27;;
3207;SDS011;1616;52.394;9.756;2022-08-19T13:11:39;1.20;;;1.10;;
3207;SDS011;1616;52.394;9.756;2022-08-19T13:14:05;1.35;;;1.25;;
3207;SDS011;1616;52.394;9.756;2022-08-19T13:16:30;2.67;;;1.25;;
3207;SDS011;1616;52.394;9.756;2022-08-19T13:18:57;1.48;;;1.30;;
3207;SDS011;1616;52.394;9.756;2022-08-19T13:21:24;1.23;;;1.13;;
3207;SDS011;1616;52.394;9.756;2022-08-19T13:23:51;1.30;;;1.20;;
3207;SDS011;1616;52.394;9.756;2022-08-19T13:26:17;1.97;;;1.10;;
3207;SDS011;1616;52.394;9.756;2022-08-19T13:28:44;1.40;;;1.30;;
3207;SDS011;1616;52.394;9.756;2022-08-19T13:31:30;1.40;;;1.20;;
3207;SDS011;1616;52.394;9.756;2022-08-19T13:34:17;3.27;;;1.40;;
3207;SDS011;1616;52.394;9.756;2022-08-19T13:36:44;1.50;;;1.33;;
3207;SDS011;1616;52.394;9.756;2022-08-19T13:39:10;2.43;;;2.23;;
3207;SDS011;1616;52.394;9.756;2022-08-19T13:41:37;1.50;;;1.40;;
3207;SDS011;1616;52.394;9.756;2022-08-19T13:44:08;5.53;;;1.20;;
3207;SDS011;1616;52.394;9.756;2022-08-19T13:46:33;1.33;;;1.23;;
3207;SDS011;1616;52.394;9.756;2022-08-19T13:48:59;1.13;;;1.03;;
3207;SDS011;1616;52.394;9.756;2022-08-19T13:51:24;2.07;;;1.10;;
3207;SDS011;1616;52.394;9.756;2022-08-19T13:53:50;1.30;;;1.20;;
3207;SDS011;1616;52.394;9.756;2022-08-19T13:56:17;3.83;;;1.50;;
3207;SDS011;1616;52.394;9.756;2022-08-19T13:58:44;1.37;;;1.27;;
3207;SDS011;1616;52.394;9.756;2022-08-19T14:01:11;1.40;;;1.30;;
3207;SDS011;1616;52.394;9.756;2022-08-19T14:03:37;1.53;;;1.30;;
3207;SDS011;1616;52.394;9.756;2022-08-19T14:06:03;1.30;;;1.20;;
3207;SDS011;1616;52.394;9.756;2022-08-19T14:08:29;1.50;;;1.40;;
3207;SDS011;1616;52.394;9.756;2022-08-19T14:10:57;3.10;;;1.30;;
3207;SDS011;1616;52.394;9.756;2022-08-19T14:13:23;1.33;;;1.20;;
3207;SDS011;1616;52.394;9.756;2022-08-19T14:15:50;1.63;;;1.53;;
3207;SDS011;1616;52.394;9.756;2022-08-19T14:18:17;4.03;;;1.10;;
3207;SDS011;1616;52.394;9.756;2022-08-19T14:20:45;2.93;;;1.20;;
3207;SDS011;1616;52.394;9.756;2022-08-19T14:23:10;1.40;;;1.13;;
3207;SDS011;1616;52.394;9.756;2022-08-19T14:25:37;1.50;;;1.40;;
3207;SDS011;1616;52.394;9.756;2022-08-19T14:28:03;1.77;;;1.30;;
3207;SDS011;1616;52.394;9.756;2022-08-19T14:30:31;1.40;;;1.30;;
3207;SDS011;1616;52.394;9.756;2022-08-19T14:32:58;1.20;;;1.10;;
3207;SDS011;1616;52.394;9.756;2022-08-19T14:35:27;1.20;;;1.10;;
3207;SDS011;1616;52.394;9.756;2022-08-19T14:37:54;1.90;;;1.27;;
3207;SDS011;1616;52.394;9.756;2022-08-19T14:40:21;2.17;;;1.40;;
3207;SDS011;1616;52.394;9.756;2022-08-19T14:42:51;1.77;;;1.40;;
3207;SDS011;1616;52.394;9.756;2022-08-19T14:45:24;1.77;;;1.63;;
3207;SDS011;1616;52.394;9.756;2022-08-19T14:47:51;3.93;;;1.40;;
3207;SDS011;1616;52.394;9.756;2022-08-19T14:50:18;2.03;;;1.10;;
3207;SDS011;1616;52.394;9.756;2022-08-19T14:52:45;1.47;;;1.20;;
3207;SDS011;1616;52.394;9.756;2022-08-19T14:55:13;1.40;;;1.30;;
3207;SDS011;1616;52.394;9.756;2022-08-19T14:57:42;1.27;;;1.17;;
3207;SDS011;1616;52.394;9.756;2022-08-19T15:00:08;5.67;;;1.77;;
3207;SDS011;1616;52.394;9.756;2022-08-19T15:02:38;1.83;;;1.73;;
3207;SDS011;1616;52.394;9.756;2022-08-19T15:05:05;1.93;;;1.20;;
3207;SDS011;1616;52.394;9.756;2022-08-19T15:07:31;2.00;;;1.03;;
3207;SDS011;1616;52.394;9.756;2022-08-19T15:09:57;2.30;;;1.53;;
3207;SDS011;1616;52.394;9.756;2022-08-19T15:12:23;4.00;;;1.47;;
3207;SDS011;1616;52.394;9.756;2022-08-19T15:14:48;1.80;;;1.30;;
3207;SDS011;1616;52.394;9.756;2022-08-19T15:17:18;4.00;;;3.80;;
3207;SDS011;1616;52.394;9.756;2022-08-19T15:19:44;3.93;;;2.53;;
3207;SDS011;1616;52.394;9.756;2022-08-19T15:22:10;7.60;;;7.00;;
3207;SDS011;1616;52.394;9.756;2022-08-19T15:24:37;8.20;;;7.50;;
3207;SDS011;1616;52.394;9.756;2022-08-19T15:27:03;4.20;;;3.70;;
3207;SDS011;1616;52.394;9.756;2022-08-19T15:29:30;1.60;;;1.30;;
3207;SDS011;1616;52.394;9.756;2022-08-19T15:31:57;3.60;;;3.40;;
3207;SDS011;1616;52.394;9.756;2022-08-19T15:34:24;2.50;;;1.50;;